createdAt,value
2018-01-23T00:00:58.075Z,6.30
2018-01-23T00:03:25.559Z,6.30
2018-01-23T00:05:53.068Z,6.20
2018-01-23T00:08:20.552Z,6.20
2018-01-23T00:10:48.056Z,6.20
2018-01-23T00:13:15.597Z,6.30
2018-01-23T00:15:43.082Z,6.40
2018-01-23T00:18:10.950Z,6.20
2018-01-23T00:20:38.518Z,6.20
2018-01-23T00:23:05.994Z,6.20
2018-01-23T00:25:33.491Z,6.20
2018-01-23T00:28:01.446Z,6.20
2018-01-23T00:30:28.934Z,6.20
2018-01-23T00:32:56.803Z,6.20
2018-01-23T00:35:24.774Z,6.10
2018-01-23T00:37:52.247Z,6.10
2018-01-23T00:40:19.809Z,6.20
2018-01-23T00:42:47.388Z,6.20
2018-01-23T00:45:14.858Z,6.20
2018-01-23T00:47:42.350Z,6.20
2018-01-23T00:50:10.222Z,6.20
2018-01-23T00:52:38.114Z,6.30
2018-01-23T00:55:05.590Z,6.30
2018-01-23T00:57:33.086Z,6.20
2018-01-23T01:00:00.572Z,6.20
2018-01-23T01:02:28.166Z,6.20
2018-01-23T01:04:55.746Z,6.20
2018-01-23T01:07:23.313Z,6.20
2018-01-23T01:09:50.786Z,6.20
2018-01-23T01:12:18.282Z,6.20
2018-01-23T01:14:46.150Z,6.10
2018-01-23T01:17:14.047Z,6.10
2018-01-23T01:19:41.582Z,6.20
2018-01-23T01:22:09.074Z,6.10
2018-01-23T01:24:36.945Z,6.10
2018-01-23T01:27:04.838Z,6.10
2018-01-23T01:29:32.706Z,6.10
2018-01-23T01:32:00.673Z,6.00
2018-01-23T01:34:28.142Z,6.10
2018-01-23T01:36:55.722Z,6.00
2018-01-23T01:39:23.190Z,6.10
2018-01-23T01:41:50.694Z,6.10
2018-01-23T01:44:18.170Z,6.10
2018-01-23T01:46:45.683Z,6.10
2018-01-23T01:49:13.159Z,6.10
2018-01-23T01:51:40.759Z,6.10
2018-01-23T01:54:08.636Z,6.10
2018-01-23T01:56:36.538Z,6.10
2018-01-23T01:59:04.019Z,6.20
2018-01-23T02:01:31.532Z,6.10
2018-01-23T02:03:59.016Z,6.10
2018-01-23T02:06:26.519Z,6.00
2018-01-23T02:08:54.024Z,6.10
2018-01-23T02:11:21.930Z,6.10
2018-01-23T02:13:49.431Z,6.00
2018-01-23T02:16:17.310Z,6.00
2018-01-23T02:18:45.215Z,5.90
2018-01-23T02:21:12.704Z,5.90
2018-01-23T02:23:40.215Z,6.00
2018-01-23T02:26:07.696Z,6.10
2018-01-23T02:28:35.599Z,6.10
2018-01-23T02:31:03.083Z,6.20
2018-01-23T02:33:30.610Z,6.10
2018-01-23T02:35:58.504Z,6.00
2018-01-23T02:38:26.470Z,6.00
2018-01-23T02:40:54.044Z,6.00
2018-01-23T02:43:21.547Z,6.00
2018-01-23T02:45:49.022Z,6.00
2018-01-23T02:48:16.556Z,6.00
2018-01-23T02:50:44.040Z,6.10
2018-01-23T02:53:11.544Z,6.10
2018-01-23T02:55:39.066Z,6.00
2018-01-23T02:58:06.575Z,6.00
2018-01-23T03:00:34.102Z,5.90
2018-01-23T03:03:01.619Z,6.00
2018-01-23T03:05:29.153Z,5.90
2018-01-23T03:07:56.660Z,5.90
2018-01-23T03:10:24.142Z,5.90
2018-01-23T03:12:51.650Z,6.00
2018-01-23T03:15:19.131Z,5.90
2018-01-23T03:17:46.640Z,5.90
2018-01-23T03:20:14.129Z,5.90
2018-01-23T03:22:41.630Z,5.90
2018-01-23T03:25:09.229Z,5.90
2018-01-23T03:27:37.140Z,6.00
2018-01-23T03:30:04.625Z,6.00
2018-01-23T03:32:32.144Z,6.00
2018-01-23T03:35:00.022Z,6.10
2018-01-23T03:37:27.592Z,6.10
2018-01-23T03:39:55.103Z,6.10
2018-01-23T03:42:22.588Z,6.10
2018-01-23T03:44:50.104Z,6.10
2018-01-23T03:47:17.676Z,6.00
2018-01-23T03:49:45.253Z,6.00
2018-01-23T03:52:13.144Z,6.10
2018-01-23T03:54:41.047Z,6.10
2018-01-23T03:57:08.522Z,6.10
2018-01-23T03:59:36.030Z,6.10
2018-01-23T04:02:03.521Z,6.10
2018-01-23T04:04:31.028Z,6.20
2018-01-23T04:06:58.511Z,6.20
2018-01-23T04:09:26.036Z,6.20
2018-01-23T04:11:53.916Z,6.20
2018-01-23T04:14:21.900Z,6.30
2018-01-23T04:16:49.775Z,6.30
2018-01-23T04:19:17.288Z,6.30
2018-01-23T04:21:44.772Z,6.20
2018-01-23T04:24:12.284Z,6.20
2018-01-23T04:26:39.758Z,6.20
2018-01-23T04:29:07.664Z,6.20
2018-01-23T04:31:35.208Z,6.30
2018-01-23T04:34:03.116Z,6.20
2018-01-23T04:36:30.604Z,6.20
2018-01-23T04:38:58.120Z,6.20
2018-01-23T04:41:25.608Z,6.30
2018-01-23T04:43:53.517Z,6.30
2018-01-23T04:46:21.010Z,6.30
2018-01-23T04:48:48.516Z,6.30
2018-01-23T04:51:15.991Z,6.30
2018-01-23T04:53:43.564Z,6.30
2018-01-23T04:56:11.043Z,6.30
2018-01-23T04:58:39.015Z,6.30
2018-01-23T05:01:06.495Z,6.30
2018-01-23T05:03:34.391Z,6.20
2018-01-23T05:06:01.872Z,6.20
2018-01-23T05:08:29.384Z,6.10
2018-01-23T05:10:56.886Z,6.10
2018-01-23T05:13:24.864Z,6.10
2018-01-23T05:15:52.769Z,6.10
2018-01-23T05:18:20.311Z,6.10
2018-01-23T05:20:47.819Z,6.10
2018-01-23T05:23:15.299Z,6.00
2018-01-23T05:25:42.815Z,6.00
2018-01-23T05:28:10.296Z,6.10
2018-01-23T05:30:38.199Z,6.00
2018-01-23T05:33:05.675Z,6.00
2018-01-23T05:35:33.220Z,6.10
2018-01-23T05:38:01.120Z,6.00
2018-01-23T05:40:28.633Z,6.00
2018-01-23T05:42:56.120Z,6.10
2018-01-23T05:45:23.632Z,6.10
2018-01-23T05:47:51.180Z,6.20
2018-01-23T05:50:18.692Z,6.10
2018-01-23T05:52:46.225Z,6.00
2018-01-23T05:55:14.128Z,5.90
2018-01-23T05:57:41.612Z,6.00
2018-01-23T06:00:09.124Z,5.90
2018-01-23T06:02:36.711Z,5.90
2018-01-23T06:05:04.220Z,5.90
2018-01-23T06:07:31.703Z,5.90
2018-01-23T06:09:59.202Z,6.00
2018-01-23T06:12:26.688Z,5.90
2018-01-23T06:14:54.193Z,5.90
2018-01-23T06:17:21.735Z,5.90
2018-01-23T06:19:49.312Z,5.90
2018-01-23T06:22:16.894Z,5.90
2018-01-23T06:24:44.800Z,6.00
2018-01-23T06:27:12.283Z,6.00
2018-01-23T06:29:39.786Z,6.00
2018-01-23T06:32:07.266Z,6.00
2018-01-23T06:34:34.769Z,6.00
2018-01-23T06:37:02.251Z,6.00
2018-01-23T06:39:29.760Z,5.90
2018-01-23T06:41:57.239Z,5.90
2018-01-23T06:44:24.744Z,5.90
2018-01-23T06:46:52.711Z,5.80
2018-01-23T06:49:20.190Z,5.80
2018-01-23T06:51:48.096Z,5.80
2018-01-23T06:54:15.588Z,5.80
2018-01-23T06:56:43.107Z,5.80
2018-01-23T06:59:10.605Z,5.80
2018-01-23T07:01:38.109Z,5.90
2018-01-23T07:04:05.640Z,5.90
2018-01-23T07:06:33.182Z,5.90
2018-01-23T07:09:00.664Z,5.90
2018-01-23T07:11:28.576Z,5.80
2018-01-23T07:13:56.055Z,5.80
2018-01-23T07:16:23.568Z,5.80
2018-01-23T07:18:51.047Z,5.80
2018-01-23T07:21:18.559Z,5.90
2018-01-23T07:23:46.047Z,5.90
2018-01-23T07:26:13.663Z,5.90
2018-01-23T07:28:41.152Z,5.90
2018-01-23T07:31:09.064Z,5.80
2018-01-23T07:33:36.538Z,5.80
2018-01-23T07:36:04.050Z,5.80
2018-01-23T07:38:31.629Z,5.80
2018-01-23T07:40:59.200Z,5.80
2018-01-23T07:43:26.675Z,5.80
2018-01-23T07:45:54.579Z,5.80
2018-01-23T07:48:22.123Z,5.80
2018-01-23T07:50:50.019Z,5.80
2018-01-23T07:53:17.998Z,5.80
2018-01-23T07:55:45.920Z,5.90
2018-01-23T07:58:13.403Z,5.90
2018-01-23T08:00:40.907Z,5.90
2018-01-23T08:03:08.391Z,6.00
2018-01-23T08:05:36.287Z,5.90
2018-01-23T08:08:03.771Z,5.90
2018-01-23T08:10:31.284Z,5.90
2018-01-23T08:12:58.772Z,6.00
2018-01-23T08:15:26.672Z,6.10
2018-01-23T08:17:54.156Z,6.10
2018-01-23T08:20:21.663Z,6.20
2018-01-23T08:22:49.491Z,6.20
2018-01-23T08:25:17.045Z,6.20
2018-01-23T08:27:45.254Z,6.30
2018-01-23T08:30:12.755Z,6.30
2018-01-23T08:32:40.368Z,6.20
2018-01-23T08:35:07.944Z,6.20
2018-01-23T08:37:35.452Z,6.20
2018-01-23T08:40:02.936Z,6.20
2018-01-23T08:42:30.448Z,6.20
2018-01-23T08:44:58.023Z,6.20
2018-01-23T08:47:25.527Z,6.70
2018-01-23T08:49:52.998Z,6.60
2018-01-23T08:52:20.499Z,6.50
2018-01-23T08:54:47.980Z,6.50
2018-01-23T08:57:15.580Z,6.40
2018-01-23T08:59:43.060Z,6.40
2018-01-23T09:02:10.977Z,6.30
2018-01-23T09:04:38.456Z,6.30
2018-01-23T09:07:05.954Z,6.20
2018-01-23T09:09:33.436Z,6.20
2018-01-23T09:12:01.013Z,6.20
2018-01-23T09:14:28.492Z,6.20
2018-01-23T09:16:56.392Z,6.20
2018-01-23T09:19:23.936Z,6.20
2018-01-23T09:21:51.440Z,6.20
2018-01-23T09:24:18.925Z,6.10
2018-01-23T09:26:46.422Z,6.20
2018-01-23T09:29:13.894Z,6.40
2018-01-23T09:31:41.390Z,6.50
2018-01-23T09:34:09.368Z,6.50
2018-01-23T09:36:36.866Z,6.50
2018-01-23T09:39:04.439Z,6.50
2018-01-23T09:41:31.952Z,6.50
2018-01-23T09:43:59.436Z,6.50
2018-01-23T09:46:26.945Z,6.60
2018-01-23T09:48:54.821Z,6.60
2018-01-23T09:51:22.724Z,6.60
2018-01-23T09:53:50.212Z,6.60
2018-01-23T09:56:17.716Z,6.50
2018-01-23T09:58:45.199Z,6.50
2018-01-23T10:01:12.708Z,6.40
2018-01-23T10:03:40.188Z,6.40
2018-01-23T10:06:07.684Z,6.50
2018-01-23T10:08:35.183Z,6.40
2018-01-23T10:11:03.063Z,6.40
2018-01-23T10:13:30.968Z,6.40
2018-01-23T10:15:58.448Z,6.40
2018-01-23T10:18:25.952Z,6.50
2018-01-23T10:20:53.433Z,6.40
2018-01-23T10:23:20.930Z,6.40
2018-01-23T10:25:48.808Z,6.40
2018-01-23T10:28:16.770Z,6.40
2018-01-23T10:30:44.252Z,6.40
2018-01-23T10:33:11.755Z,6.30
2018-01-23T10:35:39.292Z,6.30
2018-01-23T10:38:06.800Z,6.40
2018-01-23T10:40:34.280Z,6.40
2018-01-23T10:43:01.809Z,6.30
2018-01-23T10:45:29.288Z,6.30
2018-01-23T10:47:57.203Z,6.50
2018-01-23T10:50:24.687Z,6.50
2018-01-23T10:52:52.182Z,6.60
2018-01-23T10:55:19.654Z,6.60
2018-01-23T10:57:47.244Z,6.60
2018-01-23T11:00:15.124Z,6.60
2018-01-23T11:02:42.632Z,6.70
2018-01-23T11:05:10.116Z,6.80
2018-01-23T11:07:37.623Z,6.80
2018-01-23T11:10:05.104Z,6.90
2018-01-23T11:12:32.648Z,6.90
2018-01-23T11:15:00.128Z,6.90
2018-01-23T11:17:27.632Z,7.00
2018-01-23T11:19:55.513Z,7.20
2018-01-23T11:22:23.439Z,7.30
2018-01-23T11:24:50.971Z,7.30
2018-01-23T11:27:18.516Z,7.30
2018-01-23T11:29:46.082Z,7.30
2018-01-23T11:32:13.600Z,7.40
2018-01-23T11:34:41.077Z,7.40
2018-01-23T11:37:08.588Z,7.30
2018-01-23T11:39:36.173Z,7.30
2018-01-23T11:42:03.648Z,7.40
2018-01-23T11:44:31.650Z,8.90
2018-01-23T11:46:59.137Z,8.90
2018-01-23T11:49:26.645Z,8.60
2018-01-23T11:51:54.120Z,8.40
2018-01-23T11:54:21.694Z,8.10
2018-01-23T11:56:49.172Z,7.90
2018-01-23T11:59:16.752Z,7.80
2018-01-23T12:01:44.241Z,7.70
2018-01-23T12:04:11.773Z,7.70
2018-01-23T12:06:39.256Z,7.70
2018-01-23T12:09:06.764Z,7.60
2018-01-23T12:11:34.244Z,7.60
2018-01-23T12:14:01.753Z,7.60
2018-01-23T12:16:29.236Z,7.70
2018-01-23T12:18:56.730Z,7.70
2018-01-23T12:21:24.609Z,7.90
2018-01-23T12:23:52.504Z,7.80
2018-01-23T12:26:20.053Z,7.80
2018-01-23T12:28:47.955Z,7.80
2018-01-23T12:31:15.427Z,7.80
2018-01-23T12:33:42.926Z,7.90
2018-01-23T12:36:10.398Z,7.90
2018-01-23T12:38:37.902Z,7.90
2018-01-23T12:41:05.389Z,7.90
2018-01-23T12:43:33.292Z,7.90
2018-01-23T12:46:00.771Z,8.00
2018-01-23T12:48:28.270Z,8.00
2018-01-23T12:50:55.772Z,8.00
2018-01-23T12:53:23.275Z,8.00
2018-01-23T12:55:50.802Z,8.10
2018-01-23T12:58:18.384Z,8.00
2018-01-23T13:00:45.947Z,7.90
2018-01-23T13:03:13.453Z,8.00
2018-01-23T13:05:40.932Z,7.90
2018-01-23T13:08:08.435Z,7.90
2018-01-23T13:10:35.917Z,7.90
2018-01-23T13:13:03.433Z,8.00
2018-01-23T13:15:30.979Z,8.00
2018-01-23T13:17:58.546Z,8.10
2018-01-23T13:20:26.043Z,8.10
2018-01-23T13:22:53.592Z,8.10
2018-01-23T13:25:21.096Z,8.00
2018-01-23T13:27:48.641Z,8.10
2018-01-23T13:30:16.623Z,8.10
2018-01-23T13:32:44.504Z,8.10
2018-01-23T13:35:12.020Z,8.10
2018-01-23T13:37:39.500Z,8.20
2018-01-23T13:40:07.004Z,8.60
2018-01-23T13:42:34.575Z,8.50
2018-01-23T13:45:02.077Z,8.40
2018-01-23T13:47:29.552Z,8.40
2018-01-23T13:49:57.061Z,8.40
2018-01-23T13:52:24.544Z,8.30
2018-01-23T13:54:52.048Z,8.40
2018-01-23T13:57:19.919Z,8.30
2018-01-23T13:59:47.486Z,8.40
2018-01-23T14:02:14.958Z,8.40
2018-01-23T14:04:42.455Z,8.40
2018-01-23T14:07:09.928Z,8.50
2018-01-23T14:09:37.428Z,8.50
2018-01-23T14:12:04.904Z,8.50
2018-01-23T14:14:32.512Z,8.50
2018-01-23T14:16:59.992Z,8.50
2018-01-23T14:19:27.964Z,8.50
2018-01-23T14:21:55.548Z,8.50
2018-01-23T14:24:23.117Z,8.50
2018-01-23T14:26:50.987Z,8.50
2018-01-23T14:29:18.492Z,8.50
2018-01-23T14:31:45.963Z,8.50
2018-01-23T14:34:13.498Z,8.50
2018-01-23T14:36:40.981Z,8.40
2018-01-23T14:39:08.960Z,8.40
2018-01-23T14:41:36.836Z,8.40
2018-01-23T14:44:04.340Z,8.30
2018-01-23T14:46:31.821Z,8.30
2018-01-23T14:48:59.328Z,8.30
2018-01-23T14:51:26.808Z,8.30
2018-01-23T14:53:54.289Z,8.30
2018-01-23T14:56:21.792Z,8.20
2018-01-23T14:58:49.272Z,8.20
2018-01-23T15:01:16.771Z,8.10
2018-01-23T15:03:44.243Z,8.00
2018-01-23T15:06:11.756Z,7.90
2018-01-23T15:08:39.233Z,7.90
2018-01-23T15:11:06.774Z,7.90
2018-01-23T15:13:34.247Z,7.90
2018-01-23T15:16:01.748Z,7.90
2018-01-23T15:18:29.220Z,7.80
2018-01-23T15:20:56.725Z,7.80
2018-01-23T15:23:24.194Z,7.80
2018-01-23T15:25:51.691Z,8.30
2018-01-23T15:28:19.167Z,8.10
2018-01-23T15:30:46.662Z,7.90
2018-01-23T15:33:14.655Z,7.90
2018-01-23T15:35:42.204Z,7.90
2018-01-23T15:38:10.209Z,7.80
2018-01-23T15:40:37.716Z,7.80
2018-01-23T15:43:05.226Z,7.80
2018-01-23T15:45:33.119Z,7.80
2018-01-23T15:48:00.680Z,7.80
2018-01-23T15:50:28.654Z,7.80
2018-01-23T15:52:56.543Z,7.70
2018-01-23T15:55:24.442Z,7.70
2018-01-23T15:57:51.919Z,7.70
2018-01-23T16:00:19.419Z,7.70
2018-01-23T16:02:46.912Z,7.70
2018-01-23T16:05:14.498Z,7.70
2018-01-23T16:07:42.510Z,7.70
2018-01-23T16:10:10.017Z,7.80
2018-01-23T16:12:37.486Z,7.70
2018-01-23T16:15:04.992Z,7.70
2018-01-23T16:17:32.467Z,7.70
2018-01-23T16:20:00.068Z,7.70
2018-01-23T16:22:27.540Z,7.70
2018-01-23T16:24:55.035Z,7.70
2018-01-23T16:27:22.513Z,7.70
2018-01-23T16:29:50.046Z,7.70
2018-01-23T16:32:17.552Z,7.70
2018-01-23T16:34:45.032Z,7.70
2018-01-23T16:37:12.632Z,7.80
2018-01-23T16:39:40.116Z,7.80
2018-01-23T16:42:08.088Z,7.80
2018-01-23T16:44:35.652Z,7.80
2018-01-23T16:47:03.233Z,7.80
2018-01-23T16:49:31.110Z,7.80
2018-01-23T16:51:59.133Z,7.80
2018-01-23T16:54:26.613Z,7.80
2018-01-23T16:56:54.107Z,7.80
2018-01-23T16:59:21.596Z,7.80
2018-01-23T17:01:49.172Z,7.80
2018-01-23T17:04:16.739Z,7.80
2018-01-23T17:06:44.239Z,7.90
2018-01-23T17:09:11.716Z,7.90
2018-01-23T17:11:39.611Z,7.90
2018-01-23T17:14:07.106Z,7.90
2018-01-23T17:16:34.641Z,7.90
2018-01-23T17:19:02.211Z,7.90
2018-01-23T17:21:29.752Z,7.90
2018-01-23T17:23:57.224Z,7.90
2018-01-23T17:26:25.122Z,7.90
2018-01-23T17:28:52.992Z,7.90
2018-01-23T17:31:20.964Z,7.90
2018-01-23T17:33:48.451Z,7.90
2018-01-23T17:36:16.415Z,7.90
2018-01-23T17:38:44.016Z,7.90
2018-01-23T17:41:11.510Z,7.90
2018-01-23T17:43:38.979Z,7.90
2018-01-23T17:46:06.485Z,7.90
2018-01-23T17:48:33.969Z,7.90
2018-01-23T17:51:01.545Z,7.80
2018-01-23T17:53:29.419Z,7.90
2018-01-23T17:55:57.348Z,7.90
2018-01-23T17:58:24.879Z,7.90
2018-01-23T18:00:52.767Z,7.90
2018-01-23T18:03:20.647Z,7.90
2018-01-23T18:05:48.547Z,7.90
2018-01-23T18:08:16.099Z,8.00
2018-01-23T18:10:43.977Z,7.90
2018-01-23T18:13:11.943Z,7.90
2018-01-23T18:15:39.419Z,7.90
2018-01-23T18:18:06.993Z,7.90
2018-01-23T18:20:34.863Z,7.90
2018-01-23T18:23:02.440Z,7.90
2018-01-23T18:25:29.920Z,7.90
2018-01-23T18:27:59.587Z,7.90
2018-01-23T18:30:27.063Z,7.90
2018-01-23T18:32:54.584Z,7.80
2018-01-23T18:35:22.465Z,7.70
2018-01-23T18:37:50.440Z,7.60
2018-01-23T18:40:18.324Z,7.50
2018-01-23T18:42:46.225Z,7.50
2018-01-23T18:45:13.704Z,7.50
2018-01-23T18:47:41.244Z,7.50
2018-01-23T18:50:09.115Z,7.50
2018-01-23T18:52:36.611Z,7.50
2018-01-23T18:55:04.480Z,7.40
2018-01-23T18:57:31.984Z,7.40
2018-01-23T18:59:59.464Z,7.40
2018-01-23T19:02:26.966Z,7.50
2018-01-23T19:04:54.438Z,7.50
2018-01-23T19:07:21.940Z,7.50
2018-01-23T19:09:49.809Z,7.60
2018-01-23T19:12:17.704Z,7.60
2018-01-23T19:14:45.184Z,7.60
2018-01-23T19:17:12.687Z,7.70
2018-01-23T19:19:40.163Z,7.70
2018-01-23T19:22:07.660Z,7.70
2018-01-23T19:24:35.548Z,7.80
2018-01-23T19:27:03.520Z,7.80
2018-01-23T19:29:31.001Z,7.80
2018-01-23T19:31:58.529Z,7.70
2018-01-23T19:34:26.010Z,7.70
2018-01-23T19:36:53.519Z,7.70
2018-01-23T19:39:21.395Z,7.80
2018-01-23T19:41:49.364Z,7.80
2018-01-23T19:44:16.861Z,7.80
2018-01-23T19:46:45.330Z,7.80
2018-01-23T19:49:12.892Z,7.80
2018-01-23T19:51:40.376Z,7.70
2018-01-23T19:54:07.874Z,7.60
2018-01-23T19:56:35.342Z,7.70
2018-01-23T19:59:02.912Z,7.70
2018-01-23T20:01:30.383Z,7.60
2018-01-23T20:03:57.888Z,7.60
2018-01-23T20:06:25.354Z,7.70
2018-01-23T20:08:52.860Z,7.60
2018-01-23T20:11:20.344Z,7.60
2018-01-23T20:13:48.244Z,7.50
2018-01-23T20:16:15.724Z,7.60
2018-01-23T20:18:43.229Z,7.60
2018-01-23T20:21:10.755Z,7.60
2018-01-23T20:23:38.260Z,7.60
2018-01-23T20:26:05.772Z,7.60
2018-01-23T20:28:33.666Z,7.60
2018-01-23T20:31:01.544Z,7.60
2018-01-23T20:33:29.485Z,7.60
2018-01-23T20:35:56.964Z,7.60
2018-01-23T20:38:24.472Z,7.60
2018-01-23T20:40:52.428Z,7.60
2018-01-23T20:43:19.940Z,7.60
2018-01-23T20:45:47.417Z,7.60
2018-01-23T20:48:14.947Z,7.60
2018-01-23T20:50:42.442Z,7.60
2018-01-23T20:53:09.939Z,7.60
2018-01-23T20:55:37.415Z,7.60
2018-01-23T20:58:04.915Z,7.60
2018-01-23T21:00:32.398Z,7.60
2018-01-23T21:02:59.896Z,7.60
2018-01-23T21:05:27.376Z,7.70
2018-01-23T21:07:54.880Z,7.70
2018-01-23T21:10:22.364Z,7.70
2018-01-23T21:12:49.864Z,7.80
2018-01-23T21:15:17.736Z,7.70
2018-01-23T21:17:45.635Z,7.80
2018-01-23T21:20:13.118Z,7.80
2018-01-23T21:22:40.644Z,7.80
2018-01-23T21:25:08.124Z,7.70
2018-01-23T21:27:35.653Z,7.80
2018-01-23T21:30:03.124Z,7.80
2018-01-23T21:32:30.604Z,7.80
2018-01-23T21:34:58.107Z,7.80
2018-01-23T21:37:25.980Z,7.90
2018-01-23T21:39:53.491Z,7.90
2018-01-23T21:42:21.019Z,7.90
2018-01-23T21:44:48.519Z,7.90
2018-01-23T21:47:16.396Z,7.90
2018-01-23T21:49:43.909Z,8.00
2018-01-23T21:52:11.383Z,7.90
2018-01-23T21:54:38.892Z,8.00
2018-01-23T21:57:06.763Z,8.00
2018-01-23T21:59:34.271Z,8.00
2018-01-23T22:02:01.816Z,8.00
2018-01-23T22:04:29.720Z,8.00
2018-01-23T22:06:57.260Z,8.00
2018-01-23T22:09:24.778Z,8.00
2018-01-23T22:11:52.299Z,8.00
2018-01-23T22:14:19.876Z,8.00
2018-01-23T22:16:47.365Z,8.10
2018-01-23T22:19:15.269Z,8.10
2018-01-23T22:21:42.738Z,8.10
2018-01-23T22:24:10.255Z,8.10
2018-01-23T22:26:37.834Z,8.10
2018-01-23T22:29:05.336Z,8.20
2018-01-23T22:31:32.880Z,8.20
2018-01-23T22:34:00.406Z,8.30
2018-01-23T22:36:27.881Z,8.20
2018-01-23T22:38:55.378Z,8.30
2018-01-23T22:41:23.706Z,8.30
2018-01-23T22:43:51.630Z,8.30
2018-01-23T22:46:19.102Z,8.40
2018-01-23T22:48:46.608Z,8.30
2018-01-23T22:51:14.575Z,8.30
2018-01-23T22:53:42.084Z,8.40
2018-01-23T22:56:09.556Z,8.40
2018-01-23T22:58:37.065Z,8.40
2018-01-23T23:01:04.540Z,8.40
2018-01-23T23:03:32.041Z,8.40
2018-01-23T23:05:59.936Z,8.50
2018-01-23T23:08:27.816Z,8.50
2018-01-23T23:10:55.720Z,8.60
2018-01-23T23:13:23.201Z,8.60
2018-01-23T23:15:50.698Z,8.60
2018-01-23T23:18:18.172Z,8.60
2018-01-23T23:20:45.671Z,8.50
2018-01-23T23:23:13.538Z,8.60
2018-01-23T23:25:41.043Z,8.60
2018-01-23T23:28:08.524Z,8.60
2018-01-23T23:30:36.048Z,8.60
2018-01-23T23:33:03.528Z,8.60
2018-01-23T23:35:31.432Z,8.60
2018-01-23T23:37:58.904Z,8.60
2018-01-23T23:40:26.439Z,8.50
2018-01-23T23:42:53.900Z,8.50
2018-01-23T23:45:21.488Z,8.50
2018-01-23T23:47:49.364Z,8.60
2018-01-23T23:50:16.876Z,8.60
2018-01-23T23:52:44.356Z,8.60
2018-01-23T23:55:11.872Z,8.70
2018-01-23T23:57:39.359Z,8.70
